Time;durP1;ratioP1;P1;durP2;ratioP2;P2;SDS_P1;SDS_P2;PMS_P1;PMS_P2;Temp;Humidity;BMP_temperature;BMP_pressure;BME280_temperature;BME280_humidity;BME280_pressure;Samples;Min_cycle;Max_cycle;Signal;HPM_P1;HPM_P2
2022/12/06 00:02:10;;;;;;;29.67;9.82;;;;;;;-1.21;100.00;94010.59;5001896;28;20048;-69
2022/12/06 00:04:37;;;;;;;31.33;10.85;;;;;;;-1.27;100.00;94017.34;5010908;28;20046;-69
2022/12/06 00:07:04;;;;;;;31.88;9.48;;;;;;;-1.38;100.00;94013.53;5003392;28;20423;-69
2022/12/06 00:09:31;;;;;;;40.15;10.10;;;;;;;-1.54;100.00;94018.00;5002753;28;20046;-69
2022/12/06 00:11:58;;;;;;;29.05;9.55;;;;;;;-1.46;100.00;94025.97;4993654;28;20054;-69
2022/12/06 00:14:25;;;;;;;24.13;9.38;;;;;;;-1.45;100.00;94027.56;5012562;28;20050;-69
2022/12/06 00:16:52;;;;;;;31.92;9.77;;;;;;;-1.39;100.00;94014.63;5013238;28;20058;-68
2022/12/06 00:19:21;;;;;;;30.83;8.30;;;;;;;-1.30;100.00;94020.69;5013340;28;20087;-69
2022/12/06 00:21:48;;;;;;;28.58;8.95;;;;;;;-1.28;100.00;94029.22;5013035;28;20060;-69
2022/12/06 00:24:18;;;;;;;64.50;9.43;;;;;;;-1.48;100.00;94022.84;5011128;28;22414;-69
2022/12/06 00:26:47;;;;;;;72.72;9.95;;;;;;;-1.73;100.00;94022.03;4993405;28;20058;-69
2022/12/06 00:29:20;;;;;;;90.40;9.35;;;;;;;-1.64;100.00;94021.94;5006851;28;20042;-69
2022/12/06 00:31:47;;;;;;;62.78;8.43;;;;;;;-1.73;100.00;94015.84;5011602;28;20053;-69
2022/12/06 00:34:14;;;;;;;55.00;8.65;;;;;;;-1.90;100.00;94020.31;5012976;28;20606;-69
2022/12/06 00:36:41;;;;;;;24.60;8.10;;;;;;;-1.83;100.00;94012.50;5011530;28;20074;-68
2022/12/06 00:39:11;;;;;;;29.60;8.48;;;;;;;-1.84;100.00;94010.91;5012732;28;20046;-69
2022/12/06 00:41:38;;;;;;;27.65;8.63;;;;;;;-1.77;100.00;94015.75;5012898;28;20517;-69
2022/12/06 00:44:06;;;;;;;31.48;8.50;;;;;;;-1.70;100.00;94010.59;5012385;28;20050;-69
2022/12/06 00:46:33;;;;;;;80.03;11.02;;;;;;;-1.73;100.00;94010.47;5012594;28;20056;-69
2022/12/06 00:49:02;;;;;;;84.85;9.20;;;;;;;-1.78;100.00;94013.41;5012339;28;20042;-69
2022/12/06 00:51:31;;;;;;;59.55;8.00;;;;;;;-1.91;100.00;94015.28;5012582;28;20046;-68
2022/12/06 00:53:58;;;;;;;135.77;8.88;;;;;;;-1.86;100.00;94004.31;5002074;28;20390;-68
2022/12/06 00:56:25;;;;;;;125.35;8.25;;;;;;;-2.03;100.00;94008.78;4993800;28;20050;-68
2022/12/06 00:58:52;;;;;;;232.65;12.90;;;;;;;-2.14;100.00;94006.84;4996921;28;20630;-68
2022/12/06 01:01:22;;;;;;;239.77;11.10;;;;;;;-2.16;100.00;94007.16;5005278;28;20058;-69
2022/12/06 01:03:54;;;;;;;55.80;8.57;;;;;;;-2.12;100.00;93997.31;4983438;28;20042;-69
2022/12/06 01:06:27;;;;;;;45.25;7.68;;;;;;;-1.96;100.00;94002.84;5011873;28;21117;-69
2022/12/06 01:09:00;;;;;;;91.22;7.57;;;;;;;-2.29;100.00;94000.97;5012065;28;20107;-68
2022/12/06 01:11:27;;;;;;;83.30;8.35;;;;;;;-2.26;100.00;94002.22;4999978;28;20054;-69
2022/12/06 01:13:54;;;;;;;107.13;9.50;;;;;;;-2.39;100.00;93993.34;5011323;28;20046;-68
2022/12/06 01:16:25;;;;;;;305.65;12.35;;;;;;;-2.31;100.00;93994.38;5012466;28;20410;-69
2022/12/06 01:18:55;;;;;;;253.95;11.45;;;;;;;-2.31;100.00;93995.16;5011670;28;20042;-67
2022/12/06 01:21:24;;;;;;;75.40;8.68;;;;;;;-2.18;100.00;94003.25;5012553;28;20076;-67
2022/12/06 01:23:53;;;;;;;89.18;7.85;;;;;;;-2.18;100.00;94004.03;5011498;28;20049;-68
2022/12/06 01:26:22;;;;;;;73.78;7.88;;;;;;;-2.23;100.00;94002.34;5011099;28;20056;-69
2022/12/06 01:28:49;;;;;;;82.63;8.70;;;;;;;-2.25;100.00;94006.47;4998128;28;20038;-68
2022/12/06 01:31:16;;;;;;;117.20;9.63;;;;;;;-2.26;100.00;94002.22;5011310;28;20394;-68
2022/12/06 01:33:43;;;;;;;174.15;11.05;;;;;;;-2.18;100.00;93997.88;5011759;28;20104;-68
2022/12/06 01:36:22;;;;;;;115.03;10.05;;;;;;;-2.11;100.00;93998.91;5006929;28;20065;-68
2022/12/06 01:38:50;;;;;;;152.07;11.23;;;;;;;-2.13;100.00;93998.44;5002608;28;20049;-68
2022/12/06 01:41:22;;;;;;;47.75;8.23;;;;;;;-2.10;100.00;93994.28;5010940;28;20865;-68
2022/12/06 01:43:49;;;;;;;79.50;9.15;;;;;;;-2.11;100.00;93985.44;5010672;28;20049;-68
2022/12/06 01:46:23;;;;;;;67.78;8.50;;;;;;;-2.53;100.00;93990.16;5010993;28;20791;-68
2022/12/06 01:48:56;;;;;;;102.05;8.57;;;;;;;-2.66;100.00;93992.00;5010930;28;20124;-69
2022/12/06 01:51:23;;;;;;;36.15;8.05;;;;;;;-2.86;100.00;93988.22;5011935;28;20451;-69
2022/12/06 01:53:52;;;;;;;70.07;8.18;;;;;;;-2.84;100.00;93985.97;5001333;28;20042;-66
2022/12/06 01:56:20;;;;;;;46.05;6.65;;;;;;;-2.93;100.00;93977.22;4984670;28;20046;-67
2022/12/06 01:58:49;;;;;;;107.40;8.27;;;;;;;-2.96;100.00;93967.91;4995695;28;20044;-66
2022/12/06 02:01:16;;;;;;;69.28;8.82;;;;;;;-2.91;100.00;93980.38;5010338;28;20649;-69
2022/12/06 02:03:44;;;;;;;72.35;8.20;;;;;;;-2.84;100.00;93985.97;4995775;28;20038;-66
2022/12/06 02:06:11;;;;;;;167.05;10.65;;;;;;;-2.91;100.00;93983.06;5010546;28;20088;-66
2022/12/06 02:08:38;;;;;;;166.60;10.20;;;;;;;-3.04;100.00;93990.25;5010954;28;20049;-66
2022/12/06 02:11:05;;;;;;;63.85;9.10;;;;;;;-2.94;100.00;93991.75;5001711;28;20055;-66
2022/12/06 02:13:33;;;;;;;63.15;8.20;;;;;;;-2.94;100.00;93979.09;5007173;28;20046;-66
2022/12/06 02:16:18;;;;;;;48.25;8.50;;;;;;;-2.87;100.00;93978.59;5010952;28;20071;-66
2022/12/06 02:18:53;;;;;;;45.20;9.52;;;;;;;-2.72;100.00;93979.88;5011155;28;20042;-66
2022/12/06 02:21:47;;;;;;;88.60;10.38;;;;;;;-2.87;100.00;93974.00;5010433;28;20075;-66
2022/12/06 02:24:34;;;;;;;26.77;7.88;;;;;;;-2.69;100.00;93973.88;5009653;28;20053;-67
2022/12/06 02:27:10;;;;;;;96.72;9.18;;;;;;;-2.69;100.00;93974.66;5000018;28;20050;-66
2022/12/06 02:30:07;;;;;;;76.20;10.25;;;;;;;-2.67;100.00;93974.31;4997016;28;20053;-67
2022/12/06 02:32:49;;;;;;;21.02;7.68;;;;;;;-2.66;100.00;93965.13;5009852;28;20404;-67
2022/12/06 02:35:53;;;;;;;23.20;8.07;;;;;;;-2.57;100.00;93978.50;5010077;28;20689;-68
2022/12/06 02:38:34;;;;;;;36.70;7.70;;;;;;;-2.56;100.00;93967.41;5005143;28;20450;-67
2022/12/06 02:41:09;;;;;;;25.85;7.00;;;;;;;-2.57;100.00;93970.44;5010499;28;20056;-67
2022/12/06 02:43:52;;;;;;;34.35;8.15;;;;;;;-2.65;100.00;93967.50;5010425;28;20115;-68
2022/12/06 02:46:21;;;;;;;72.53;9.32;;;;;;;-2.69;100.00;93961.22;5009710;28;20450;-67
2022/12/06 02:48:52;;;;;;;39.28;10.18;;;;;;;-2.65;100.00;93966.72;5008838;28;20537;-67
2022/12/06 02:51:19;;;;;;;30.27;10.15;;;;;;;-2.53;100.00;93961.38;4990254;28;20269;-67
2022/12/06 02:53:51;;;;;;;90.22;11.68;;;;;;;-2.54;100.00;93954.41;4997123;28;20042;-67
2022/12/06 02:56:18;;;;;;;68.18;11.10;;;;;;;-2.52;100.00;93954.09;4982741;28;20638;-67
2022/12/06 02:58:45;;;;;;;56.47;10.43;;;;;;;-2.66;100.00;93957.06;4994599;28;20061;-67
2022/12/06 03:01:16;;;;;;;127.28;11.73;;;;;;;-2.69;100.00;93965.81;4996169;28;20050;-67
2022/12/06 03:03:52;;;;;;;112.00;11.23;;;;;;;-2.74;100.00;93960.63;4995169;28;20509;-67
2022/12/06 03:06:45;;;;;;;96.43;11.73;;;;;;;-2.74;100.00;93964.09;5009578;28;20102;-67
2022/12/06 03:09:48;;;;;;;82.13;10.10;;;;;;;-2.85;100.00;93961.03;5009343;28;20046;-67
2022/12/06 03:12:36;;;;;;;97.25;9.80;;;;;;;-2.78;100.00;93959.72;4995577;28;20953;-67
2022/12/06 03:15:09;;;;;;;84.65;9.90;;;;;;;-2.90;100.00;93958.53;5010009;28;20054;-67
2022/12/06 03:17:57;;;;;;;158.15;11.30;;;;;;;-3.09;100.00;93958.25;5009693;28;20052;-68
2022/12/06 03:20:27;;;;;;;189.57;11.13;;;;;;;-2.94;100.00;93943.41;5009608;28;20726;-68
2022/12/06 03:23:01;;;;;;;68.22;9.15;;;;;;;-2.74;100.00;93953.34;5009482;28;20063;-67
2022/12/06 03:25:29;;;;;;;54.13;9.43;;;;;;;-2.64;100.00;93952.16;4997715;28;20047;-68
2022/12/06 03:27:57;;;;;;;50.78;9.65;;;;;;;-2.62;100.00;93947.22;5000384;28;20060;-67
2022/12/06 03:30:24;;;;;;;135.70;10.68;;;;;;;-2.69;100.00;93942.41;5017690;28;20049;-67
2022/12/06 03:32:51;;;;;;;341.63;14.93;;;;;;;-2.96;100.00;93943.75;5009453;28;20415;-67
2022/12/06 03:35:25;;;;;;;108.80;11.18;;;;;;;-3.08;100.00;93941.00;5010127;28;20056;-68
2022/12/06 03:38:01;;;;;;;74.60;11.10;;;;;;;-2.94;100.00;93938.06;5009437;28;20454;-67
2022/12/06 03:40:30;;;;;;;76.32;11.02;;;;;;;-2.82;100.00;93936.22;5010250;28;20162;-66
2022/12/06 03:42:59;;;;;;;52.00;9.80;;;;;;;-2.74;100.00;93939.91;5009107;28;20048;-65
2022/12/06 03:45:35;;;;;;;48.15;10.40;;;;;;;-2.69;100.00;93938.94;5009856;28;20053;-66
2022/12/06 03:48:20;;;;;;;100.85;11.70;;;;;;;-2.64;100.00;93950.25;5009331;28;20042;-65
2022/12/06 03:50:53;;;;;;;65.70;9.25;;;;;;;-2.59;100.00;93945.81;4995668;28;20046;-65
2022/12/06 03:53:24;;;;;;;108.65;10.55;;;;;;;-2.66;100.00;93949.00;5002898;28;20248;-67
2022/12/06 03:55:51;;;;;;;47.50;9.40;;;;;;;-2.77;100.00;93945.97;4986644;28;20495;-67
2022/12/06 03:58:18;;;;;;;95.78;10.15;;;;;;;-2.70;100.00;93946.19;4994241;28;20047;-67
2022/12/06 04:00:45;;;;;;;35.47;8.50;;;;;;;-2.60;100.00;93953.06;5005564;28;20274;-67
2022/12/06 04:03:12;;;;;;;69.60;10.93;;;;;;;-2.60;100.00;93953.06;4994574;28;20038;-67
2022/12/06 04:05:38;;;;;;;44.55;8.20;;;;;;;-2.56;100.00;93956.66;5009269;28;20046;-66
2022/12/06 04:08:05;;;;;;;69.00;9.55;;;;;;;-2.60;100.00;93953.06;5009584;28;20042;-65
2022/12/06 04:10:32;;;;;;;55.55;9.23;;;;;;;-2.64;100.00;93944.88;5004347;28;20050;-67
2022/12/06 04:13:01;;;;;;;50.88;8.98;;;;;;;-2.67;100.00;93950.13;5001043;28;20876;-66
2022/12/06 04:15:34;;;;;;;59.40;9.20;;;;;;;-2.57;100.00;93940.88;5009684;28;20406;-67
2022/12/06 04:18:15;;;;;;;26.77;8.98;;;;;;;-2.42;100.00;93930.25;5009180;28;20042;-66
2022/12/06 04:23:37;;;;;;;28.65;8.38;;;;;;;-2.25;100.00;93920.47;5001867;28;20712;-66
2022/12/06 04:26:06;;;;;;;64.93;9.65;;;;;;;-2.30;100.00;93915.28;4991577;28;20125;-66
2022/12/06 04:39:34;;;;;;;31.02;9.27;;;;;;;-2.31;100.00;93913.72;5012306;28;20034;-67
2022/12/06 04:44:47;;;;;;;22.58;8.68;;;;;;;-2.49;100.00;93910.44;5012944;28;20058;-66
2022/12/06 04:47:14;;;;;;;29.73;8.60;;;;;;;-2.50;100.00;93914.25;5012607;28;20053;-67
2022/12/06 04:49:41;;;;;;;21.25;8.55;;;;;;;-2.48;100.00;93915.47;5012559;28;20103;-67
2022/12/06 04:52:09;;;;;;;23.23;8.13;;;;;;;-2.42;100.00;93913.38;5012397;28;20494;-67
2022/12/06 04:54:36;;;;;;;23.73;8.65;;;;;;;-2.41;100.00;93914.94;5012930;28;20072;-67
2022/12/06 04:57:03;;;;;;;21.08;8.50;;;;;;;-2.29;100.00;93914.97;5010547;28;20057;-67
2022/12/06 04:59:30;;;;;;;22.52;8.38;;;;;;;-2.29;100.00;93912.28;5012747;28;20046;-67
2022/12/06 05:01:56;;;;;;;22.95;8.27;;;;;;;-2.27;100.00;93911.94;5004638;28;20487;-67
2022/12/06 05:04:23;;;;;;;27.30;9.48;;;;;;;-2.23;100.00;93915.53;5006207;28;20046;-67
2022/12/06 05:06:51;;;;;;;31.95;10.00;;;;;;;-2.34;100.00;93909.00;5011504;28;20042;-67
2022/12/06 05:09:18;;;;;;;30.48;11.30;;;;;;;-2.16;100.00;93912.28;5012536;28;20042;-68
2022/12/06 05:11:45;;;;;;;28.08;9.60;;;;;;;-2.13;100.00;93901.66;5012120;28;20105;-68
2022/12/06 05:14:11;;;;;;;29.20;9.88;;;;;;;-2.08;100.00;93904.09;5012077;28;20037;-68
2022/12/06 05:16:38;;;;;;;24.80;8.80;;;;;;;-1.96;100.00;93889.09;5012522;28;20054;-67
2022/12/06 05:19:05;;;;;;;26.83;9.98;;;;;;;-1.88;100.00;93899.75;5011575;28;20038;-67
2022/12/06 05:21:31;;;;;;;24.95;9.15;;;;;;;-1.82;100.00;93895.69;5012368;28;20095;-67
2022/12/06 05:23:58;;;;;;;23.63;9.32;;;;;;;-2.03;100.00;93903.13;5011788;28;20049;-68
2022/12/06 05:26:27;;;;;;;24.98;9.60;;;;;;;-2.05;100.00;93891.91;4997725;28;20044;-67
2022/12/06 05:28:54;;;;;;;26.30;8.73;;;;;;;-2.05;100.00;93891.91;4994455;28;20046;-68
2022/12/06 05:31:22;;;;;;;25.08;9.07;;;;;;;-2.00;100.00;93894.38;4993426;28;20043;-67
2022/12/06 05:33:51;;;;;;;26.08;9.95;;;;;;;-1.93;100.00;93899.16;4998983;28;20044;-67
2022/12/06 05:36:21;;;;;;;24.65;9.15;;;;;;;-1.98;100.00;93884.06;5005575;28;21706;-67
2022/12/06 05:38:49;;;;;;;23.90;9.27;;;;;;;-1.90;100.00;93887.75;5004342;28;20045;-67
2022/12/06 05:41:22;;;;;;;23.73;9.13;;;;;;;-1.70;100.00;93889.53;5010108;28;20849;-67
2022/12/06 05:43:48;;;;;;;23.35;9.07;;;;;;;-1.78;100.00;93885.06;5011687;28;20058;-67
2022/12/06 05:46:15;;;;;;;24.38;9.10;;;;;;;-1.62;100.00;93882.47;4996344;28;20053;-68
2022/12/06 05:48:42;;;;;;;22.88;8.70;;;;;;;-1.60;100.00;93877.53;5011832;28;20050;-68
2022/12/06 05:51:09;;;;;;;25.42;9.35;;;;;;;-1.70;100.00;93880.69;5011025;28;20050;-67
2022/12/06 05:53:36;;;;;;;24.20;9.20;;;;;;;-1.69;100.00;93876.84;5011540;28;20056;-67
2022/12/06 05:56:08;;;;;;;20.25;7.95;;;;;;;-1.72;100.00;93877.53;5002666;28;20060;-68
2022/12/06 05:58:36;;;;;;;17.92;6.93;;;;;;;-1.79;100.00;93871.94;5007567;28;20054;-69
2022/12/06 06:01:04;;;;;;;21.67;8.20;;;;;;;-1.75;100.00;93876.31;5010510;28;20046;-69
2022/12/06 06:03:31;;;;;;;19.90;8.35;;;;;;;-1.69;100.00;93874.16;4996415;28;20121;-68
2022/12/06 06:06:00;;;;;;;21.95;8.90;;;;;;;-1.58;100.00;93882.56;5010589;28;20116;-69
2022/12/06 06:08:28;;;;;;;20.88;8.38;;;;;;;-1.59;100.00;93880.97;4997731;28;20043;-69
2022/12/06 06:10:55;;;;;;;21.30;8.93;;;;;;;-1.68;100.00;93878.44;5010506;28;20034;-68
2022/12/06 06:13:22;;;;;;;21.50;8.80;;;;;;;-1.59;100.00;93886.38;5011370;28;20045;-69
2022/12/06 06:15:48;;;;;;;23.45;8.93;;;;;;;-1.58;100.00;93882.56;5010524;28;20068;-69
2022/12/06 06:18:16;;;;;;;25.25;10.25;;;;;;;-1.54;100.00;93876.16;5010276;28;21611;-69
2022/12/06 06:20:55;;;;;;;27.33;10.60;;;;;;;-1.45;100.00;93876.03;5011275;28;20050;-67
2022/12/06 06:23:23;;;;;;;23.25;9.90;;;;;;;-1.36;100.00;93863.22;4996859;28;20406;-68
2022/12/06 06:25:50;;;;;;;29.15;10.32;;;;;;;-1.43;100.00;93868.38;4990391;28;20050;-67
2022/12/06 06:28:17;;;;;;;28.35;10.85;;;;;;;-1.35;100.00;93869.38;4993911;28;20042;-67
2022/12/06 06:30:44;;;;;;;47.40;19.20;;;;;;;-1.27;100.00;93868.47;4990946;28;20046;-67
2022/12/06 06:33:12;;;;;;;45.17;18.25;;;;;;;-1.22;100.00;93860.16;4992930;28;20046;-67
2022/12/06 06:35:40;;;;;;;54.28;21.90;;;;;;;-1.20;100.00;93855.22;4994840;28;20045;-68
2022/12/06 06:38:06;;;;;;;35.47;14.93;;;;;;;-1.18;100.00;93868.34;4990602;28;20048;-68
2022/12/06 06:40:33;;;;;;;31.20;12.55;;;;;;;-1.08;100.00;93870.53;5003451;28;20046;-68
2022/12/06 06:43:16;;;;;;;31.42;13.65;;;;;;;-1.22;100.00;93869.00;5009509;28;20083;-67
2022/12/06 06:45:50;;;;;;;27.95;12.65;;;;;;;-1.29;100.00;93870.72;5010535;28;20425;-66
2022/12/06 06:48:17;;;;;;;21.05;9.18;;;;;;;-1.51;100.00;93870.13;5008221;28;20060;-67
2022/12/06 06:50:44;;;;;;;22.70;10.43;;;;;;;-1.67;100.00;93864.66;5010223;28;20050;-67
2022/12/06 06:53:11;;;;;;;28.33;10.10;;;;;;;-1.77;100.00;93873.19;5010192;28;20048;-67
2022/12/06 06:55:38;;;;;;;23.85;10.35;;;;;;;-1.66;100.00;93866.19;5010427;28;20095;-67
2022/12/06 06:58:05;;;;;;;27.30;11.05;;;;;;;-1.55;100.00;93855.78;5010039;28;20053;-68
2022/12/06 07:00:32;;;;;;;27.33;10.80;;;;;;;-1.42;100.00;93862.66;5005372;28;20043;-67
2022/12/06 07:02:58;;;;;;;27.55;11.93;;;;;;;-1.27;100.00;93868.47;4986476;28;20081;-67
2022/12/06 07:05:26;;;;;;;27.23;12.13;;;;;;;-1.26;100.00;93870.03;4994611;28;20046;-67
2022/12/06 07:07:53;;;;;;;26.60;11.65;;;;;;;-1.42;100.00;93861.91;4990198;28;20050;-67
2022/12/06 07:10:20;;;;;;;22.88;11.23;;;;;;;-1.21;100.00;93867.09;4998898;28;20054;-66
2022/12/06 07:12:48;;;;;;;21.77;9.80;;;;;;;-1.19;100.00;93866.75;5006119;28;20046;-66
2022/12/06 07:15:16;;;;;;;21.42;9.48;;;;;;;-1.21;100.00;93870.59;5009497;28;20660;-67
2022/12/06 07:17:42;;;;;;;23.67;10.73;;;;;;;-1.09;100.00;93863.56;5010746;28;20046;-67
2022/12/06 07:20:09;;;;;;;23.45;9.85;;;;;;;-1.02;100.00;93867.25;4982596;28;20887;-67
2022/12/06 07:22:36;;;;;;;22.48;10.75;;;;;;;-1.10;100.00;93862.78;5010432;28;20422;-67
2022/12/06 07:25:03;;;;;;;23.10;9.95;;;;;;;-0.98;100.00;93864.66;5005278;28;20521;-67
2022/12/06 07:27:34;;;;;;;26.30;10.90;;;;;;;-0.95;100.00;93863.97;5010363;28;20526;-67
2022/12/06 07:30:05;;;;;;;25.00;10.93;;;;;;;-1.08;100.00;93865.16;5009852;28;20045;-67
2022/12/06 07:32:35;;;;;;;23.85;11.82;;;;;;;-1.16;100.00;93866.09;5002149;28;20057;-68
2022/12/06 07:35:03;;;;;;;23.85;10.57;;;;;;;-1.16;100.00;93860.69;4990104;28;20422;-67
2022/12/06 07:37:30;;;;;;;24.88;10.82;;;;;;;-1.10;100.00;93854.72;4998865;28;20108;-67
2022/12/06 07:39:58;;;;;;;25.52;11.02;;;;;;;-1.04;100.00;93839.88;5009500;28;20050;-67
2022/12/06 07:45:13;;;;;;;25.85;10.90;;;;;;;-1.05;100.00;93851.78;5009830;28;20046;-68
2022/12/06 07:47:42;;;;;;;27.73;11.50;;;;;;;-1.15;100.00;93851.47;5010076;28;20045;-68
2022/12/06 07:50:11;;;;;;;28.45;11.80;;;;;;;-1.13;100.00;93850.00;5009099;28;20457;-67
2022/12/06 07:52:44;;;;;;;34.83;13.25;;;;;;;-1.15;100.00;93860.34;5010130;28;20042;-67
2022/12/06 07:55:11;;;;;;;32.13;13.45;;;;;;;-1.02;100.00;93853.00;5000867;28;20042;-67
2022/12/06 07:57:38;;;;;;;32.13;13.80;;;;;;;-0.96;100.00;93854.31;4990437;28;20046;-67
2022/12/06 08:00:15;;;;;;;31.80;13.80;;;;;;;-0.77;100.00;93863.66;5009008;28;20063;-67
2022/12/06 08:02:42;;;;;;;26.55;11.27;;;;;;;-0.75;100.00;93856.78;5010028;28;20092;-67
2022/12/06 08:05:10;;;;;;;28.60;12.82;;;;;;;-0.61;100.00;93865.25;5011081;28;20069;-67
2022/12/06 08:07:37;;;;;;;28.73;13.07;;;;;;;-0.47;100.00;93866.75;5013955;28;20191;-66
2022/12/06 08:10:05;;;;;;;26.58;11.35;;;;;;;-0.41;100.00;93871.53;5003694;28;20046;-66
2022/12/06 08:12:32;;;;;;;26.00;10.98;;;;;;;-0.37;100.00;93876.25;4995430;28;20461;-66
2022/12/06 08:14:59;;;;;;;26.23;10.73;;;;;;;-0.46;100.00;93871.03;5011855;28;20509;-66
2022/12/06 08:17:26;;;;;;;23.70;10.20;;;;;;;-0.36;100.00;93872.41;5013518;28;20050;-67
2022/12/06 08:19:53;;;;;;;24.02;10.32;;;;;;;-0.36;100.00;93872.41;5012968;28;20050;-66
2022/12/06 08:22:20;;;;;;;23.60;10.18;;;;;;;-0.63;100.00;93864.81;5013568;28;20056;-66
2022/12/06 08:24:46;;;;;;;24.75;10.57;;;;;;;-0.51;100.00;93863.19;5008137;28;20411;-67
2022/12/06 08:27:13;;;;;;;23.58;10.50;;;;;;;-0.37;100.00;93866.22;5012595;28;20871;-67
2022/12/06 08:29:40;;;;;;;24.50;10.15;;;;;;;-0.31;100.00;93862.16;5013633;28;20056;-67
2022/12/06 08:32:06;;;;;;;28.40;12.15;;;;;;;-0.16;100.00;93860.59;5012316;28;20049;-67
2022/12/06 08:34:33;;;;;;;25.23;9.77;;;;;;;-0.25;100.00;93857.28;5010712;28;20056;-67
2022/12/06 08:37:00;;;;;;;28.92;10.05;;;;;;;-0.02;100.00;93860.94;4993252;28;20054;-67
2022/12/06 08:39:29;;;;;;;25.10;10.65;;;;;;;0.05;100.00;93859.53;4995287;28;20077;-67
2022/12/06 08:42:01;;;;;;;25.63;10.60;;;;;;;0.14;100.00;93849.31;4992851;28;20046;-67
2022/12/06 08:44:29;;;;;;;27.75;10.88;;;;;;;-0.02;100.00;93860.13;5000820;28;20499;-67
2022/12/06 08:46:57;;;;;;;34.95;12.98;;;;;;;0.03;100.00;93867.97;5009899;28;20038;-67
2022/12/06 08:49:25;;;;;;;33.65;14.63;;;;;;;-0.12;100.00;93857.97;5012896;28;20045;-67
2022/12/06 08:51:52;;;;;;;30.75;11.70;;;;;;;-0.32;100.00;93866.00;5010454;28;20053;-66
2022/12/06 08:54:22;;;;;;;32.33;12.18;;;;;;;-0.12;100.00;93858.78;5000648;28;20088;-66
2022/12/06 08:56:49;;;;;;;31.17;12.02;;;;;;;0.04;100.00;93855.25;5012288;28;20549;-67
2022/12/06 08:59:17;;;;;;;27.10;11.50;;;;;;;0.04;100.00;93860.66;5021802;28;20632;-68
2022/12/06 09:01:45;;;;;;;29.75;12.43;;;;;;;0.40;100.00;93864.94;5004136;28;20049;-67
2022/12/06 09:04:12;;;;;;;29.27;12.37;;;;;;;0.56;100.00;93857.59;5012153;28;20042;-67
2022/12/06 09:06:41;;;;;;;32.40;14.27;;;;;;;0.49;100.00;93864.75;5012808;28;20049;-67
2022/12/06 09:09:09;;;;;;;28.73;12.05;;;;;;;0.68;100.00;93866.69;5008474;28;20104;-67
2022/12/06 09:11:37;;;;;;;26.92;11.38;;;;;;;0.59;100.00;93865.00;5000797;28;20568;-67
2022/12/06 09:14:06;;;;;;;26.60;11.35;;;;;;;0.63;100.00;93856.97;5011816;28;20042;-68
2022/12/06 09:16:33;;;;;;;27.30;11.40;;;;;;;0.75;100.00;93862.25;5011279;28;20050;-67
2022/12/06 09:18:59;;;;;;;27.35;11.35;;;;;;;0.70;100.00;93869.81;5012231;28;20050;-67
2022/12/06 09:21:29;;;;;;;28.63;12.23;;;;;;;0.36;100.00;93864.09;5012444;28;20048;-67
2022/12/06 09:23:57;;;;;;;30.13;12.80;;;;;;;0.51;100.00;93873.28;5011959;28;20049;-68
2022/12/06 09:26:25;;;;;;;28.48;13.02;;;;;;;0.32;100.00;93872.13;5007216;28;20459;-68
2022/12/06 09:28:54;;;;;;;30.58;12.90;;;;;;;0.49;100.00;93867.47;5011985;28;20038;-68
2022/12/06 09:31:21;;;;;;;31.67;13.55;;;;;;;1.06;100.00;93863.22;5012220;28;20042;-68
2022/12/06 09:33:48;;;;;;;33.22;14.43;;;;;;;1.07;100.00;93870.22;5012072;28;20491;-68
2022/12/06 09:36:27;;;;;;;36.10;15.88;;;;;;;0.86;100.00;93861.66;4995022;28;20507;-68
2022/12/06 09:39:02;;;;;;;33.22;15.27;;;;;;;0.97;100.00;93873.50;4993660;28;20509;-68
2022/12/06 09:42:01;;;;;;;32.78;14.45;;;;;;;1.24;100.00;93871.69;5000408;28;20411;-68
2022/12/06 09:44:33;;;;;;;33.00;14.43;;;;;;;0.66;100.00;93885.19;5000142;28;20683;-68
2022/12/06 09:47:22;;;;;;;33.15;14.60;;;;;;;0.66;100.00;93879.78;5009453;28;20046;-68
2022/12/06 09:49:55;;;;;;;30.63;13.70;;;;;;;0.65;100.00;93873.59;5012029;28;20471;-68
2022/12/06 09:52:30;;;;;;;29.42;12.43;;;;;;;0.41;100.00;93871.91;5004829;28;20877;-67
2022/12/06 09:55:19;;;;;;;25.80;11.68;;;;;;;1.03;100.00;93868.56;5004469;28;20053;-67
2022/12/06 09:58:00;;;;;;;26.42;12.13;;;;;;;1.36;100.00;93868.06;5011880;28;20050;-67
2022/12/06 10:00:38;;;;;;;26.05;11.75;;;;;;;1.59;100.00;93863.47;4997128;28;20442;-68
2022/12/06 10:03:24;;;;;;;30.00;12.73;;;;;;;1.65;100.00;93860.44;5010872;28;20056;-66
2022/12/06 10:06:00;;;;;;;23.90;11.32;;;;;;;1.80;100.00;93871.16;5010984;28;20058;-65
2022/12/06 10:08:32;;;;;;;28.17;13.40;;;;;;;1.76;97.86;93856.00;5011486;28;20054;-66
2022/12/06 10:11:11;;;;;;;28.45;14.40;;;;;;;1.89;97.78;93865.53;4994942;28;20049;-67
2022/12/06 10:13:38;;;;;;;25.00;11.82;;;;;;;1.77;96.98;93863.78;5011285;28;20071;-67
2022/12/06 10:16:20;;;;;;;26.13;12.25;;;;;;;1.79;98.33;93856.06;4994696;28;20038;-67
2022/12/06 10:19:07;;;;;;;25.27;12.18;;;;;;;2.23;97.67;93854.81;5026538;28;20055;-67
2022/12/06 10:21:58;;;;;;;22.73;11.48;;;;;;;2.45;94.70;93852.44;5010138;28;20046;-68
2022/12/06 10:24:55;;;;;;;31.65;13.77;;;;;;;2.88;93.77;93839.44;5007541;28;20064;-67
2022/12/06 10:27:57;;;;;;;28.98;13.80;;;;;;;5.46;85.57;93844.16;4990791;28;20046;-67
2022/12/06 10:30:24;;;;;;;21.42;11.07;;;;;;;6.13;77.13;93841.97;4989237;28;20560;-68
2022/12/06 10:33:04;;;;;;;22.00;12.02;;;;;;;8.68;67.47;93847.13;5010998;28;20074;-69
2022/12/06 10:35:46;;;;;;;19.57;9.67;;;;;;;9.89;61.03;93837.94;4995574;28;20410;-70
2022/12/06 10:38:29;;;;;;;16.65;9.52;;;;;;;8.66;62.34;93840.53;4992495;28;20042;-69
2022/12/06 10:41:10;;;;;;;17.88;10.27;;;;;;;10.68;57.07;93834.75;4996899;28;20042;-70
2022/12/06 10:43:43;;;;;;;19.17;10.70;;;;;;;10.34;57.29;93829.44;5004198;28;20042;-69
2022/12/06 10:49:28;;;;;;;19.53;9.17;;;;;;;7.11;63.97;93838.72;5010241;28;20046;-69
2022/12/06 10:52:20;;;;;;;20.00;10.32;;;;;;;9.66;58.45;93830.38;5005362;28;20044;-69
2022/12/06 10:55:05;;;;;;;19.05;10.45;;;;;;;10.53;56.25;93825.25;5005287;28;20038;-69
2022/12/06 10:57:34;;;;;;;23.50;10.63;;;;;;;8.95;60.45;93830.06;4988668;28;20405;-69
2022/12/06 11:00:17;;;;;;;21.13;10.57;;;;;;;10.90;55.87;93831.66;5008673;28;20045;-69
2022/12/06 11:03:04;;;;;;;19.07;9.30;;;;;;;11.40;52.06;93820.50;5010799;28;20129;-69
2022/12/06 11:05:36;;;;;;;20.50;9.95;;;;;;;10.19;52.47;93826.13;5009730;28;21511;-69
2022/12/06 11:08:19;;;;;;;22.00;9.93;;;;;;;9.34;54.61;93829.63;5010071;28;20439;-69
2022/12/06 11:10:47;;;;;;;38.00;10.90;;;;;;;9.85;55.43;93834.47;4996453;28;20033;-69
2022/12/06 11:13:39;;;;;;;19.40;10.55;;;;;;;12.35;48.69;93820.84;5025037;28;20418;-69
2022/12/06 11:16:14;;;;;;;23.83;11.20;;;;;;;10.04;54.13;93809.13;5009514;28;20047;-69
2022/12/06 11:18:43;;;;;;;18.95;11.02;;;;;;;9.25;54.61;93812.13;5010326;28;20107;-69
2022/12/06 11:21:32;;;;;;;20.50;11.48;;;;;;;9.25;57.04;93807.41;5006802;28;20058;-69
2022/12/06 11:24:11;;;;;;;20.65;11.80;;;;;;;9.89;55.38;93814.03;5002077;28;20068;-69
2022/12/06 11:26:47;;;;;;;23.90;12.40;;;;;;;11.55;51.97;93800.97;4979435;28;20050;-69
2022/12/06 11:29:15;;;;;;;15.93;9.50;;;;;;;13.97;44.72;93797.28;5009964;28;20037;-69
2022/12/06 11:31:54;;;;;;;26.58;9.90;;;;;;;9.62;52.78;93794.84;5010458;28;20046;-69
2022/12/06 11:34:25;;;;;;;20.45;9.88;;;;;;;10.35;51.59;93796.13;5009015;28;20909;-70
2022/12/06 11:36:54;;;;;;;17.70;9.93;;;;;;;13.50;44.93;93790.38;4994003;28;20054;-70
2022/12/06 11:39:26;;;;;;;16.05;9.48;;;;;;;11.33;49.07;93789.66;5009234;28;20054;-69
2022/12/06 11:41:56;;;;;;;17.10;9.53;;;;;;;8.35;56.73;93804.78;5009834;28;20526;-69
2022/12/06 11:44:35;;;;;;;16.98;9.75;;;;;;;8.20;55.85;93799.44;4995025;28;20050;-68
2022/12/06 11:47:02;;;;;;;14.45;7.93;;;;;;;8.08;56.06;93796.44;5009551;28;20068;-68
2022/12/06 11:49:40;;;;;;;15.73;8.73;;;;;;;8.53;58.06;93791.78;5010007;28;20053;-68
2022/12/06 11:52:17;;;;;;;16.33;8.70;;;;;;;11.49;51.14;93784.22;5008845;28;20099;-68
2022/12/06 11:55:00;;;;;;;16.63;8.90;;;;;;;10.99;48.50;93782.47;5010197;28;20037;-68
2022/12/06 11:57:39;;;;;;;15.93;8.75;;;;;;;8.44;57.95;93785.22;5005917;28;20046;-68